Time;durP1;ratioP1;P1;durP2;ratioP2;P2;SDS_P1;SDS_P2;PMS_P1;PMS_P2;Temp;Humidity;BMP_temperature;BMP_pressure;BME280_temperature;BME280_humidity;BME280_pressure;Samples;Min_cycle;Max_cycle;Signal;HPM_P1;HPM_P2
2022/03/31 00:00:05;;;;;;;0.40;0.40;;;4.60;99.20;;;;;;4387383;32;20069;-69
2022/03/31 00:02:31;;;;;;;0.73;0.70;;;4.50;99.10;;;;;;4399352;32;20054;-69
2022/03/31 00:04:57;;;;;;;0.75;0.70;;;4.50;99.00;;;;;;4399700;32;20098;-68
2022/03/31 00:07:22;;;;;;;28.87;2.83;;;4.50;99.00;;;;;;4399377;32;20074;-69
2022/03/31 00:09:48;;;;;;;0.77;0.77;;;4.50;99.00;;;;;;4399380;32;20086;-68
2022/03/31 00:12:13;;;;;;;0.30;0.30;;;4.40;99.30;;;;;;4398517;32;20458;-68
2022/03/31 00:14:39;;;;;;;0.40;0.40;;;4.40;99.10;;;;;;4399198;32;20493;-68
2022/03/31 00:17:04;;;;;;;0.47;0.47;;;4.50;99.20;;;;;;4399568;32;20445;-68
2022/03/31 00:19:30;;;;;;;0.55;0.55;;;4.50;99.20;;;;;;4399555;32;20103;-69
2022/03/31 00:21:55;;;;;;;1.52;0.57;;;4.50;99.30;;;;;;4397513;32;20403;-70
2022/03/31 00:24:21;;;;;;;0.90;0.90;;;4.50;99.20;;;;;;4399336;32;20133;-68
2022/03/31 00:26:47;;;;;;;1.20;1.00;;;4.50;99.10;;;;;;4399273;32;20065;-69
2022/03/31 00:29:12;;;;;;;0.30;0.30;;;4.50;98.90;;;;;;4394013;32;20073;-68
2022/03/31 00:31:39;;;;;;;0.32;0.32;;;4.40;99.00;;;;;;4383020;32;20083;-69
2022/03/31 00:34:04;;;;;;;0.50;0.50;;;4.30;99.20;;;;;;4382709;32;20087;-69
2022/03/31 00:36:30;;;;;;;0.50;0.50;;;4.20;99.30;;;;;;4383340;32;20070;-68
2022/03/31 00:39:55;;;;;;;0.98;0.98;;;4.20;99.50;;;;;;4383364;32;20062;-68
2022/03/31 00:41:41;;;;;;;0.45;0.45;;;4.20;99.40;;;;;;4374141;32;20075;-68
2022/03/31 00:44:07;;;;;;;0.70;0.70;;;4.20;99.50;;;;;;4397563;32;20083;-68
2022/03/31 00:46:34;;;;;;;1.05;1.00;;;4.10;99.60;;;;;;4397569;32;20485;-69
2022/03/31 00:49:01;;;;;;;0.85;0.82;;;4.10;99.60;;;;;;4397988;32;20084;-68
2022/03/31 00:51:29;;;;;;;0.50;0.50;;;4.10;99.40;;;;;;4398003;32;20062;-68
2022/03/31 00:53:55;;;;;;;1.67;0.75;;;4.00;99.50;;;;;;4399105;32;20577;-69
2022/03/31 00:56:22;;;;;;;0.30;0.30;;;4.10;99.60;;;;;;4398460;32;20081;-69
2022/03/31 00:58:48;;;;;;;0.50;0.50;;;4.00;99.60;;;;;;4389889;32;20149;-69
2022/03/31 01:01:15;;;;;;;16.80;1.00;;;3.90;99.60;;;;;;4383114;32;20502;-69
2022/03/31 01:03:40;;;;;;;2.65;0.90;;;3.90;99.60;;;;;;4382681;32;20074;-69
2022/03/31 01:06:06;;;;;;;0.40;0.40;;;3.80;99.70;;;;;;4384139;32;20493;-69
2022/03/31 01:08:32;;;;;;;0.40;0.40;;;3.70;99.60;;;;;;4383260;32;20066;-69
2022/03/31 01:10:58;;;;;;;1.10;1.00;;;3.80;99.60;;;;;;4383874;32;20058;-69
2022/03/31 01:13:23;;;;;;;2.25;1.37;;;3.70;99.60;;;;;;4382598;32;20510;-69
2022/03/31 01:15:49;;;;;;;0.70;0.70;;;3.60;99.70;;;;;;4382464;32;20125;-69
2022/03/31 01:18:14;;;;;;;0.55;0.55;;;3.60;99.80;;;;;;4382345;32;20156;-69
2022/03/31 01:20:40;;;;;;;0.65;0.65;;;3.60;99.70;;;;;;4383517;32;20074;-70
2022/03/31 01:23:11;;;;;;;0.40;0.40;;;3.60;99.60;;;;;;4382694;32;20086;-69
2022/03/31 01:25:37;;;;;;;0.35;0.35;;;3.60;99.60;;;;;;4382836;32;20078;-69
2022/03/31 01:28:03;;;;;;;1.87;0.88;;;3.60;99.70;;;;;;4382595;32;20173;-69
2022/03/31 01:30:28;;;;;;;0.68;0.68;;;3.60;99.80;;;;;;4369173;32;20104;-69
2022/03/31 01:32:54;;;;;;;1.08;1.08;;;3.60;99.50;;;;;;4367593;32;20080;-69
2022/03/31 01:35:20;;;;;;;0.32;0.32;;;3.60;99.70;;;;;;4367478;32;20066;-69
2022/03/31 01:37:47;;;;;;;3.08;2.47;;;3.60;99.70;;;;;;4368647;32;20095;-68
2022/03/31 01:40:13;;;;;;;0.80;0.73;;;3.50;99.70;;;;;;4367540;32;20075;-68
2022/03/31 01:42:39;;;;;;;0.62;0.62;;;3.50;99.90;;;;;;4385838;32;20090;-69
2022/03/31 01:45:07;;;;;;;0.52;0.52;;;3.50;99.90;;;;;;4398260;32;20188;-69
2022/03/31 01:47:32;;;;;;;1.80;1.05;;;3.40;99.80;;;;;;4398412;32;20069;-69
2022/03/31 01:49:58;;;;;;;3.00;1.62;;;3.40;99.90;;;;;;4398084;32;20430;-69
2022/03/31 01:52:23;;;;;;;1.12;0.95;;;3.40;99.90;;;;;;4398177;32;20129;-69
2022/03/31 01:54:49;;;;;;;0.50;0.50;;;3.40;99.90;;;;;;4398244;32;20129;-69
2022/03/31 01:57:16;;;;;;;0.70;0.70;;;3.30;99.90;;;;;;4398240;32;20132;-69
2022/03/31 01:59:41;;;;;;;0.47;0.47;;;3.20;99.90;;;;;;4398340;32;20074;-69
2022/03/31 02:02:08;;;;;;;0.65;0.65;;;3.20;99.90;;;;;;4383345;32;20086;-69
2022/03/31 02:04:33;;;;;;;0.85;0.85;;;3.20;99.90;;;;;;4381660;32;20107;-69
2022/03/31 02:06:59;;;;;;;0.37;0.37;;;3.10;99.90;;;;;;4382165;32;20121;-69
2022/03/31 02:09:25;;;;;;;0.32;0.32;;;3.20;99.90;;;;;;4383497;32;20518;-69
2022/03/31 02:11:52;;;;;;;0.30;0.30;;;3.10;99.90;;;;;;4382139;32;20070;-69
2022/03/31 02:14:19;;;;;;;0.60;0.60;;;3.10;99.90;;;;;;4382172;32;20079;-69
2022/03/31 02:16:45;;;;;;;0.65;0.62;;;3.20;99.90;;;;;;4381341;32;20165;-69
2022/03/31 02:19:11;;;;;;;0.30;0.30;;;3.20;99.90;;;;;;4382913;32;20079;-70
2022/03/31 02:21:37;;;;;;;2.65;1.33;;;3.10;99.90;;;;;;4382725;32;20069;-69
2022/03/31 02:24:03;;;;;;;0.40;0.40;;;3.00;99.90;;;;;;4381739;32;20067;-69
2022/03/31 02:26:28;;;;;;;0.40;0.40;;;3.10;99.90;;;;;;4382726;32;20062;-69
2022/03/31 02:28:54;;;;;;;1.37;0.88;;;3.00;99.90;;;;;;4382919;32;20076;-69
2022/03/31 02:31:19;;;;;;;0.50;0.50;;;2.90;99.90;;;;;;4384122;32;20189;-69
2022/03/31 02:33:45;;;;;;;1.58;0.98;;;2.90;99.90;;;;;;4388056;32;20089;-68
2022/03/31 02:36:11;;;;;;;0.60;0.60;;;2.90;99.90;;;;;;4381844;32;20082;-69
2022/03/31 02:38:36;;;;;;;0.85;0.75;;;2.90;99.90;;;;;;4367622;32;20412;-69
2022/03/31 02:41:04;;;;;;;0.90;0.90;;;2.80;99.90;;;;;;4367906;32;20062;-69
2022/03/31 02:43:31;;;;;;;0.55;0.55;;;2.80;99.90;;;;;;4382267;32;20171;-69
2022/03/31 02:45:57;;;;;;;1.85;1.25;;;2.80;99.90;;;;;;4381756;32;20069;-69
2022/03/31 02:48:23;;;;;;;0.60;0.60;;;2.80;99.90;;;;;;4382366;32;20123;-68
2022/03/31 02:50:48;;;;;;;0.50;0.50;;;2.80;99.90;;;;;;4382234;32;20067;-69
2022/03/31 02:55:28;;;;;;;0.40;0.40;;;2.80;99.90;;;;;;4381766;32;20066;-69
2022/03/31 02:56:00;;;;;;;0.40;0.40;;;2.70;99.90;;;;;;4370831;32;20086;-69
2022/03/31 02:58:25;;;;;;;0.40;0.40;;;2.70;99.90;;;;;;4381602;32;20066;-69
2022/03/31 03:00:51;;;;;;;2.08;1.48;;;2.70;99.90;;;;;;4381701;32;20133;-69
2022/03/31 03:03:17;;;;;;;0.40;0.40;;;2.60;99.90;;;;;;4381987;32;20517;-69
2022/03/31 03:05:42;;;;;;;0.50;0.50;;;2.50;99.90;;;;;;4382117;32;20070;-69
2022/03/31 03:08:09;;;;;;;0.65;0.65;;;2.50;99.90;;;;;;4381924;32;20062;-69
2022/03/31 03:10:34;;;;;;;0.40;0.40;;;2.40;99.90;;;;;;4382336;32;20467;-69
2022/03/31 03:13:00;;;;;;;0.30;0.30;;;2.40;99.90;;;;;;4381628;32;20070;-69
2022/03/31 03:15:25;;;;;;;0.30;0.30;;;2.40;99.90;;;;;;4382246;32;20066;-68
2022/03/31 03:17:51;;;;;;;0.98;0.75;;;2.40;99.90;;;;;;4385455;32;20538;-68
2022/03/31 03:20:17;;;;;;;1.98;1.45;;;2.30;99.90;;;;;;4386218;32;20432;-68
2022/03/31 03:22:48;;;;;;;0.45;0.45;;;2.50;99.90;;;;;;4384735;32;20071;-69
2022/03/31 03:25:15;;;;;;;;;;;2.40;99.90;;;;;;4384489;32;20344;-68
2022/03/31 03:27:41;;;;;;;1.80;0.77;;;2.30;99.90;;;;;;4384492;32;20381;-69
2022/03/31 03:30:08;;;;;;;0.68;0.68;;;2.20;99.90;;;;;;4385205;32;20486;-69
2022/03/31 03:32:36;;;;;;;0.40;0.40;;;2.30;99.90;;;;;;4384120;32;20136;-69
2022/03/31 03:35:04;;;;;;;0.30;0.30;;;2.20;99.90;;;;;;4383847;32;20062;-68
2022/03/31 03:37:29;;;;;;;1.15;1.05;;;2.20;99.90;;;;;;4383628;32;20062;-68
2022/03/31 03:39:55;;;;;;;0.40;0.40;;;2.30;99.90;;;;;;4384327;32;20075;-68
2022/03/31 03:42:20;;;;;;;0.60;0.60;;;2.20;99.90;;;;;;4390572;32;20066;-68
2022/03/31 03:44:46;;;;;;;1.55;0.75;;;2.10;99.90;;;;;;4399051;32;20062;-69
2022/03/31 03:47:11;;;;;;;0.30;0.30;;;2.10;99.90;;;;;;4400141;32;20129;-69
2022/03/31 03:49:37;;;;;;;0.70;0.70;;;2.10;99.90;;;;;;4399153;32;20062;-69
2022/03/31 03:52:03;;;;;;;0.50;0.50;;;2.00;99.90;;;;;;4398919;32;20584;-69
2022/03/31 03:54:28;;;;;;;0.52;0.52;;;2.00;99.90;;;;;;4399388;32;20103;-69
2022/03/31 03:56:54;;;;;;;1.25;0.70;;;2.10;99.90;;;;;;4399053;32;20049;-69
2022/03/31 03:59:20;;;;;;;0.55;0.55;;;2.10;99.90;;;;;;4399975;32;20444;-70
2022/03/31 04:01:45;;;;;;;3.10;2.10;;;2.00;99.90;;;;;;4386475;32;20062;-68
2022/03/31 04:04:12;;;;;;;0.73;0.73;;;1.90;99.90;;;;;;4384665;32;20133;-69
2022/03/31 04:06:38;;;;;;;0.43;0.43;;;1.90;99.90;;;;;;4383786;32;20054;-69
2022/03/31 04:09:03;;;;;;;0.40;0.40;;;1.90;99.90;;;;;;4384087;32;20525;-68
2022/03/31 04:11:29;;;;;;;0.55;0.55;;;1.90;99.90;;;;;;4383677;32;20066;-68
2022/03/31 04:13:54;;;;;;;0.30;0.30;;;1.80;99.90;;;;;;4382948;32;20055;-69
2022/03/31 04:16:20;;;;;;;0.40;0.40;;;1.80;99.90;;;;;;4383252;32;20086;-69
2022/03/31 04:18:45;;;;;;;0.35;0.35;;;1.60;99.90;;;;;;4383491;32;20063;-70
2022/03/31 04:21:11;;;;;;;0.60;0.60;;;1.60;99.90;;;;;;4378491;32;20083;-69
2022/03/31 04:23:37;;;;;;;0.32;0.32;;;1.60;99.90;;;;;;4382315;32;20129;-69
2022/03/31 04:26:02;;;;;;;0.50;0.50;;;1.60;99.90;;;;;;4384138;32;20058;-68
2022/03/31 04:28:28;;;;;;;0.40;0.40;;;1.60;99.90;;;;;;4382835;32;20063;-69
2022/03/31 04:30:54;;;;;;;0.75;0.75;;;1.50;99.90;;;;;;4383437;32;20051;-68
2022/03/31 04:33:20;;;;;;;0.85;0.85;;;1.60;99.90;;;;;;4383416;32;20159;-69
2022/03/31 04:35:46;;;;;;;0.65;0.65;;;1.50;99.90;;;;;;4383234;32;20058;-68
2022/03/31 04:38:11;;;;;;;4.40;0.50;;;1.60;99.90;;;;;;4383296;32;20085;-70
2022/03/31 04:40:37;;;;;;;0.88;0.88;;;1.60;99.90;;;;;;4383551;32;20063;-69
2022/03/31 04:43:02;;;;;;;0.32;0.32;;;1.50;99.90;;;;;;4394433;32;20074;-70
2022/03/31 04:45:28;;;;;;;0.40;0.40;;;1.40;99.90;;;;;;4397971;32;20490;-69
2022/03/31 04:47:54;;;;;;;0.60;0.60;;;1.40;99.90;;;;;;4398241;32;20196;-69
2022/03/31 04:50:19;;;;;;;0.50;0.50;;;1.40;99.90;;;;;;4399803;32;20050;-69
2022/03/31 04:52:45;;;;;;;0.55;0.55;;;1.50;99.90;;;;;;4399667;32;20054;-69
2022/03/31 04:55:10;;;;;;;0.62;0.62;;;1.50;99.90;;;;;;4398153;32;20061;-69
2022/03/31 04:57:36;;;;;;;0.40;0.40;;;1.50;99.90;;;;;;4397654;32;20050;-69
2022/03/31 05:00:03;;;;;;;0.43;0.43;;;1.30;99.90;;;;;;4389273;32;20063;-69
2022/03/31 05:02:28;;;;;;;0.40;0.40;;;1.30;99.90;;;;;;4374992;32;20082;-69
2022/03/31 05:04:54;;;;;;;0.30;0.30;;;1.40;99.90;;;;;;4377518;32;20074;-69
2022/03/31 05:07:19;;;;;;;0.40;0.40;;;1.40;99.90;;;;;;4381931;32;20074;-69
2022/03/31 05:09:45;;;;;;;0.40;0.40;;;1.40;99.90;;;;;;4381926;32;20436;-70
2022/03/31 05:12:12;;;;;;;0.50;0.50;;;1.40;99.90;;;;;;4383283;32;20111;-69
2022/03/31 05:14:38;;;;;;;8.82;1.83;;;1.40;99.90;;;;;;4380260;32;20066;-69
2022/03/31 05:17:05;;;;;;;0.50;0.50;;;1.40;99.90;;;;;;4372503;32;20082;-69
2022/03/31 05:19:31;;;;;;;0.32;0.32;;;1.40;99.90;;;;;;4376951;32;20070;-70
2022/03/31 05:21:56;;;;;;;0.30;0.30;;;1.40;99.90;;;;;;4382026;32;20126;-69
2022/03/31 05:24:23;;;;;;;0.40;0.40;;;1.30;99.90;;;;;;4382821;32;20117;-69
2022/03/31 05:26:52;;;;;;;0.30;0.30;;;1.40;99.90;;;;;;4367380;32;20601;-69
2022/03/31 05:29:18;;;;;;;0.50;0.50;;;1.40;99.90;;;;;;4375413;32;20082;-68
2022/03/31 05:31:44;;;;;;;0.95;0.88;;;1.40;99.90;;;;;;4355501;32;20083;-69
2022/03/31 05:34:10;;;;;;;0.75;0.75;;;1.40;99.90;;;;;;4378970;32;20085;-70
2022/03/31 05:36:37;;;;;;;0.35;0.35;;;1.40;99.90;;;;;;4376511;32;20070;-70
2022/03/31 05:39:03;;;;;;;1.50;1.40;;;1.40;99.90;;;;;;4371890;32;20130;-69
2022/03/31 05:41:29;;;;;;;0.37;0.37;;;1.40;99.90;;;;;;4378933;32;20101;-69
2022/03/31 05:43:55;;;;;;;0.30;0.30;;;1.40;99.90;;;;;;4364933;32;20126;-70
2022/03/31 05:46:22;;;;;;;0.30;0.30;;;1.40;99.90;;;;;;4365092;32;20174;-69
2022/03/31 05:48:48;;;;;;;5.70;1.05;;;1.50;99.90;;;;;;4357326;32;20573;-70
2022/03/31 05:51:13;;;;;;;0.35;0.35;;;1.50;99.90;;;;;;4356209;32;20432;-69
2022/03/31 05:53:39;;;;;;;0.45;0.45;;;1.40;99.90;;;;;;4355157;32;20371;-70
2022/03/31 05:56:04;;;;;;;1.10;1.00;;;1.40;99.90;;;;;;4356158;32;20706;-70
2022/03/31 05:58:30;;;;;;;0.30;0.30;;;1.50;99.90;;;;;;4352845;32;20117;-69
2022/03/31 06:00:56;;;;;;;0.30;0.30;;;1.50;99.90;;;;;;4350943;32;20202;-71
2022/03/31 06:03:23;;;;;;;0.30;0.30;;;1.50;99.90;;;;;;4346484;32;20494;-67
2022/03/31 06:05:49;;;;;;;0.62;0.62;;;1.50;99.90;;;;;;4337475;32;20111;-68
2022/03/31 06:08:16;;;;;;;0.30;0.30;;;1.60;99.90;;;;;;4343159;32;20542;-68
2022/03/31 06:10:42;;;;;;;3.60;1.05;;;1.60;99.90;;;;;;4340492;32;20099;-69
2022/03/31 06:13:09;;;;;;;0.50;0.50;;;1.60;99.90;;;;;;4333841;32;20153;-68
2022/03/31 06:15:35;;;;;;;0.40;0.40;;;1.70;99.90;;;;;;4335442;32;20562;-70
2022/03/31 06:18:00;;;;;;;6.62;3.80;;;1.80;99.90;;;;;;4334201;32;20090;-69
2022/03/31 06:20:27;;;;;;;3.72;1.17;;;1.80;99.90;;;;;;4334249;32;20087;-69
2022/03/31 06:22:53;;;;;;;0.30;0.30;;;1.80;99.90;;;;;;4341654;32;20378;-70
2022/03/31 06:25:20;;;;;;;0.40;0.40;;;2.00;99.90;;;;;;4340493;32;20226;-69
2022/03/31 06:27:46;;;;;;;0.82;0.82;;;2.00;99.90;;;;;;4344582;32;20162;-69
2022/03/31 06:30:12;;;;;;;0.30;0.30;;;2.00;99.90;;;;;;4335626;32;20198;-69
2022/03/31 06:32:38;;;;;;;0.62;0.62;;;2.00;99.90;;;;;;4336696;32;20766;-70
2022/03/31 06:35:04;;;;;;;0.70;0.57;;;1.90;99.90;;;;;;4335075;32;20578;-70
2022/03/31 06:37:30;;;;;;;0.93;0.88;;;1.90;99.90;;;;;;4340823;32;20547;-69
2022/03/31 06:39:56;;;;;;;0.40;0.40;;;2.10;99.90;;;;;;4341677;32;20118;-68
2022/03/31 06:42:22;;;;;;;1.60;1.05;;;2.10;99.90;;;;;;4347001;32;20435;-69
2022/03/31 06:44:48;;;;;;;0.30;0.30;;;2.00;99.90;;;;;;4358958;32;20835;-70
2022/03/31 06:47:13;;;;;;;0.40;0.40;;;2.00;99.90;;;;;;4356964;32;20083;-69
2022/03/31 06:49:39;;;;;;;0.70;0.70;;;2.10;99.90;;;;;;4359170;32;20090;-68
2022/03/31 06:52:05;;;;;;;0.40;0.40;;;2.10;99.90;;;;;;4356422;32;20105;-68
2022/03/31 06:54:31;;;;;;;0.65;0.65;;;2.20;99.90;;;;;;4363142;32;20081;-69
2022/03/31 06:56:57;;;;;;;0.70;0.70;;;2.30;99.90;;;;;;4361351;32;20137;-69
2022/03/31 06:59:23;;;;;;;0.32;0.32;;;2.30;99.80;;;;;;4361810;32;20557;-69
2022/03/31 07:01:48;;;;;;;0.40;0.40;;;2.40;99.80;;;;;;4363167;32;20546;-69
2022/03/31 07:04:15;;;;;;;2.65;1.25;;;2.50;99.60;;;;;;4355874;32;20074;-70
2022/03/31 07:06:40;;;;;;;0.30;0.30;;;2.50;99.30;;;;;;4360016;32;20995;-69
2022/03/31 07:09:06;;;;;;;0.40;0.40;;;2.50;99.20;;;;;;4357163;32;20114;-68
2022/03/31 07:11:34;;;;;;;0.37;0.37;;;2.50;99.20;;;;;;4366159;32;20082;-69
2022/03/31 07:14:01;;;;;;;0.50;0.50;;;2.30;99.80;;;;;;4361281;32;20573;-69
2022/03/31 07:16:29;;;;;;;22.67;2.45;;;2.50;99.40;;;;;;4360610;32;20094;-69
2022/03/31 07:18:55;;;;;;;0.50;0.50;;;2.60;99.10;;;;;;4363573;32;20467;-69
2022/03/31 07:21:20;;;;;;;0.30;0.30;;;2.60;99.20;;;;;;4359545;32;20093;-68
2022/03/31 07:23:48;;;;;;;0.35;0.35;;;2.70;99.00;;;;;;4353255;32;20522;-69
2022/03/31 07:26:14;;;;;;;0.35;0.35;;;2.90;99.10;;;;;;4355206;32;20098;-68
2022/03/31 07:28:40;;;;;;;0.30;0.30;;;3.10;98.80;;;;;;4355790;32;20163;-69
2022/03/31 07:31:06;;;;;;;0.30;0.30;;;3.10;98.60;;;;;;4354259;32;20086;-69
2022/03/31 07:33:31;;;;;;;0.37;0.37;;;3.20;98.30;;;;;;4358748;32;20173;-69
2022/03/31 07:35:57;;;;;;;0.35;0.35;;;3.20;98.10;;;;;;4358744;32;111152;-70
2022/03/31 07:38:22;;;;;;;0.30;0.30;;;3.30;98.10;;;;;;4365976;32;20095;-69
2022/03/31 07:40:49;;;;;;;0.62;0.62;;;3.30;98.10;;;;;;4358607;32;20062;-69
2022/03/31 07:43:14;;;;;;;0.60;0.60;;;3.40;98.00;;;;;;4366369;32;20078;-69
2022/03/31 07:45:40;;;;;;;0.47;0.47;;;3.60;97.80;;;;;;4363034;32;20070;-69
2022/03/31 07:48:07;;;;;;;0.30;0.30;;;3.90;97.30;;;;;;4360380;32;20118;-69
2022/03/31 07:50:34;;;;;;;0.60;0.60;;;4.00;96.90;;;;;;4355077;32;20105;-69
2022/03/31 07:53:00;;;;;;;0.65;0.65;;;3.90;97.00;;;;;;4358374;32;20087;-68
2022/03/31 07:55:25;;;;;;;0.45;0.45;;;3.90;97.20;;;;;;4368284;32;20107;-69
2022/03/31 07:57:52;;;;;;;1.05;0.50;;;4.00;97.10;;;;;;4363157;32;20423;-70
2022/03/31 08:00:18;;;;;;;0.70;0.70;;;4.00;96.60;;;;;;4356363;32;20081;-67
2022/03/31 08:02:50;;;;;;;0.40;0.40;;;3.90;96.80;;;;;;4356386;32;20205;-68
2022/03/31 08:05:21;;;;;;;0.50;0.50;;;4.00;96.90;;;;;;4353908;32;20094;-66
2022/03/31 08:07:47;;;;;;;0.32;0.32;;;4.20;96.80;;;;;;4357132;32;20719;-67
2022/03/31 08:10:13;;;;;;;0.37;0.37;;;4.20;96.40;;;;;;4360544;32;20161;-68
2022/03/31 08:12:40;;;;;;;3.10;1.58;;;4.30;96.20;;;;;;4364674;32;20396;-67
2022/03/31 08:15:08;;;;;;;0.50;0.50;;;4.50;96.30;;;;;;4364597;32;20055;-68
2022/03/31 08:17:34;;;;;;;0.30;0.30;;;4.60;95.70;;;;;;4364856;32;20105;-67
2022/03/31 08:20:00;;;;;;;1.02;0.57;;;4.80;95.80;;;;;;4367096;32;20062;-66
2022/03/31 08:22:26;;;;;;;0.70;0.70;;;4.90;95.30;;;;;;4360934;32;20688;-68
2022/03/31 08:24:53;;;;;;;0.65;0.55;;;4.90;95.30;;;;;;4361626;32;20058;-68
2022/03/31 08:27:19;;;;;;;0.45;0.45;;;4.90;95.30;;;;;;4362297;32;20071;-69
2022/03/31 08:29:45;;;;;;;5.05;1.92;;;5.00;95.40;;;;;;4364607;32;20085;-69
2022/03/31 08:32:12;;;;;;;0.37;0.37;;;5.20;95.10;;;;;;4358539;32;20091;-70
2022/03/31 08:34:38;;;;;;;0.68;0.68;;;5.30;95.00;;;;;;4365208;32;20134;-69
2022/03/31 08:37:04;;;;;;;0.43;0.43;;;5.10;94.90;;;;;;4368559;32;20174;-69
2022/03/31 08:39:29;;;;;;;0.40;0.40;;;5.20;94.90;;;;;;4360091;32;20190;-71
2022/03/31 08:41:56;;;;;;;0.30;0.30;;;5.30;94.80;;;;;;4360551;32;21454;-70
2022/03/31 08:44:22;;;;;;;0.50;0.50;;;5.40;95.30;;;;;;4357224;32;20085;-70
2022/03/31 08:46:50;;;;;;;3.37;1.33;;;5.50;94.70;;;;;;4350673;32;20577;-71
2022/03/31 08:49:16;;;;;;;0.35;0.35;;;5.90;94.30;;;;;;4355920;32;20078;-69
2022/03/31 08:51:43;;;;;;;0.50;0.50;;;5.90;93.90;;;;;;4348949;32;20834;-71
2022/03/31 08:54:09;;;;;;;0.30;0.30;;;6.00;93.80;;;;;;4358936;32;20152;-70
2022/03/31 08:56:36;;;;;;;1.05;0.98;;;6.10;93.50;;;;;;4358054;32;21023;-69
2022/03/31 08:59:02;;;;;;;0.40;0.40;;;6.00;93.40;;;;;;4352577;32;20089;-70
2022/03/31 09:01:30;;;;;;;0.45;0.45;;;6.20;93.70;;;;;;4359221;32;20115;-69
2022/03/31 09:03:55;;;;;;;0.40;0.40;;;6.30;93.30;;;;;;4357825;32;20125;-69
2022/03/31 09:06:23;;;;;;;0.40;0.40;;;6.20;93.40;;;;;;4362376;32;20127;-69
2022/03/31 09:09:01;;;;;;;2.35;1.12;;;6.30;93.30;;;;;;4357002;32;20078;-69
2022/03/31 09:11:32;;;;;;;0.40;0.40;;;6.40;93.30;;;;;;4357799;32;20094;-70
2022/03/31 09:14:00;;;;;;;0.55;0.55;;;6.60;93.50;;;;;;4362870;32;20182;-70
2022/03/31 09:16:35;;;;;;;1.20;1.10;;;6.60;93.20;;;;;;4362225;32;20581;-68
2022/03/31 09:19:04;;;;;;;0.45;0.45;;;6.50;93.30;;;;;;4360591;32;20585;-72
2022/03/31 09:21:31;;;;;;;0.37;0.37;;;6.50;93.10;;;;;;4358163;32;20261;-70
2022/03/31 09:23:57;;;;;;;0.50;0.50;;;6.80;93.00;;;;;;4354710;32;20106;-68
2022/03/31 09:26:27;;;;;;;0.30;0.30;;;6.80;92.70;;;;;;4358841;32;20102;-68
2022/03/31 09:28:53;;;;;;;7.18;0.45;;;6.80;92.70;;;;;;4353276;32;21083;-67
2022/03/31 09:31:24;;;;;;;3.50;0.70;;;6.90;92.90;;;;;;4345227;32;20118;-69
2022/03/31 09:33:57;;;;;;;0.80;0.60;;;6.90;92.60;;;;;;4346522;32;20094;-69
2022/03/31 09:36:24;;;;;;;2.08;0.73;;;7.10;92.60;;;;;;4343147;32;20758;-69
2022/03/31 09:39:02;;;;;;;0.40;0.40;;;7.20;92.50;;;;;;4349920;32;20533;-69
2022/03/31 09:41:30;;;;;;;0.55;0.55;;;7.50;92.30;;;;;;4349340;32;20138;-69
2022/03/31 09:43:59;;;;;;;0.30;0.30;;;7.40;91.80;;;;;;4347338;32;20114;-69
2022/03/31 09:46:28;;;;;;;0.43;0.43;;;7.40;91.90;;;;;;4345119;32;20804;-69
2022/03/31 09:48:55;;;;;;;2.47;0.95;;;7.70;92.20;;;;;;4340443;32;20147;-69
2022/03/31 09:51:24;;;;;;;0.52;0.52;;;8.00;91.30;;;;;;4339776;32;20098;-69
2022/03/31 09:53:53;;;;;;;0.75;0.68;;;8.10;91.20;;;;;;4348688;32;20329;-69
2022/03/31 09:56:24;;;;;;;0.50;0.50;;;8.00;91.10;;;;;;4340750;32;20676;-69
2022/03/31 09:58:51;;;;;;;0.73;0.73;;;8.10;91.00;;;;;;4349940;32;20189;-70
2022/03/31 10:01:18;;;;;;;2.35;1.48;;;8.50;90.60;;;;;;4350635;32;20191;-69
2022/03/31 10:03:44;;;;;;;0.43;0.43;;;8.70;90.20;;;;;;4349300;32;20608;-69
2022/03/31 10:06:12;;;;;;;0.60;0.60;;;8.60;90.20;;;;;;4347976;32;20873;-69
2022/03/31 10:08:40;;;;;;;0.40;0.40;;;8.70;90.20;;;;;;4349337;32;20078;-68
2022/03/31 10:11:07;;;;;;;0.40;0.40;;;8.60;90.10;;;;;;4345631;32;20071;-68
2022/03/31 10:13:39;;;;;;;0.62;0.45;;;8.90;90.00;;;;;;4341205;32;20783;-69
2022/03/31 10:16:09;;;;;;;2.10;0.73;;;9.10;89.20;;;;;;4339533;32;21472;-67
2022/03/31 10:18:36;;;;;;;0.60;0.60;;;8.90;89.00;;;;;;4323994;32;20217;-68
2022/03/31 10:21:02;;;;;;;0.35;0.35;;;9.00;89.30;;;;;;4336298;32;20090;-69
2022/03/31 10:24:59;;;;;;;1.00;0.95;;;9.20;88.60;;;;;;4335107;32;20091;-67
2022/03/31 10:26:28;;;;;;;0.50;0.50;;;9.30;87.90;;;;;;4333763;32;20491;-69
2022/03/31 10:28:57;;;;;;;0.88;0.85;;;9.50;87.50;;;;;;4344898;32;20129;-69
2022/03/31 10:31:33;;;;;;;1.90;0.70;;;9.80;86.70;;;;;;4353911;32;20111;-70
2022/03/31 10:33:58;;;;;;;0.60;0.60;;;9.80;85.70;;;;;;4347394;32;20086;-70
2022/03/31 10:36:35;;;;;;;0.85;0.80;;;9.80;85.10;;;;;;4345726;32;20578;-69
2022/03/31 10:39:05;;;;;;;0.30;0.30;;;9.60;85.20;;;;;;4349587;32;20447;-69
2022/03/31 10:41:33;;;;;;;1.90;1.58;;;9.30;86.10;;;;;;4350004;32;20510;-69
2022/03/31 10:44:02;;;;;;;1.08;0.50;;;9.20;86.90;;;;;;4359964;32;20063;-69
2022/03/31 10:46:28;;;;;;;2.60;1.73;;;9.30;87.00;;;;;;4357541;32;20383;-70
2022/03/31 10:48:58;;;;;;;1.65;1.10;;;9.60;86.70;;;;;;4354461;32;20141;-72
2022/03/31 10:51:34;;;;;;;2.72;0.95;;;9.50;85.60;;;;;;4355399;32;20161;-71
2022/03/31 10:54:01;;;;;;;0.30;0.30;;;9.80;86.50;;;;;;4350580;32;20103;-69
2022/03/31 10:56:29;;;;;;;3.62;0.93;;;9.90;85.80;;;;;;4349457;32;20272;-69
2022/03/31 10:58:57;;;;;;;0.62;0.62;;;10.30;86.00;;;;;;4348412;32;20114;-73
2022/03/31 11:01:27;;;;;;;0.75;0.55;;;10.40;82.80;;;;;;4352976;32;20920;-71
2022/03/31 11:04:01;;;;;;;2.20;0.82;;;10.20;83.60;;;;;;4358636;32;20091;-71
2022/03/31 11:06:27;;;;;;;0.52;0.52;;;9.90;84.20;;;;;;4356530;32;20071;-72
2022/03/31 11:08:52;;;;;;;0.40;0.40;;;9.80;83.80;;;;;;4357950;32;20128;-71
2022/03/31 11:11:20;;;;;;;3.50;0.90;;;10.20;82.80;;;;;;4358249;32;20070;-70
2022/03/31 11:13:46;;;;;;;0.85;0.60;;;10.50;82.30;;;;;;4357464;32;20431;-71
2022/03/31 11:16:12;;;;;;;1.95;0.57;;;10.80;82.30;;;;;;4352673;32;20095;-71
2022/03/31 11:18:37;;;;;;;5.10;1.92;;;11.00;81.50;;;;;;4353430;32;20066;-73
2022/03/31 11:21:03;;;;;;;0.45;0.45;;;10.90;81.20;;;;;;4355516;32;21015;-71
2022/03/31 11:23:30;;;;;;;1.67;0.75;;;10.70;81.20;;;;;;4345994;32;20071;-71
2022/03/31 11:25:57;;;;;;;0.50;0.50;;;10.60;81.80;;;;;;4354651;32;20106;-71
2022/03/31 11:28:27;;;;;;;1.27;1.08;;;10.00;82.50;;;;;;4360341;32;20145;-71
2022/03/31 11:30:54;;;;;;;0.70;0.55;;;9.80;83.60;;;;;;4360017;32;20091;-71
2022/03/31 11:33:21;;;;;;;4.97;2.05;;;9.90;83.90;;;;;;4359227;32;20349;-71
2022/03/31 11:35:53;;;;;;;0.95;0.70;;;10.30;83.80;;;;;;4352828;32;20539;-72
2022/03/31 11:38:19;;;;;;;0.60;0.60;;;10.40;83.40;;;;;;4352241;32;20090;-72
2022/03/31 11:40:48;;;;;;;0.47;0.47;;;10.10;83.60;;;;;;4352060;32;21638;-73
2022/03/31 11:43:16;;;;;;;1.95;1.27;;;10.10;83.50;;;;;;4343105;32;20221;-72
2022/03/31 11:45:48;;;;;;;0.40;0.40;;;10.20;83.70;;;;;;4350530;32;20562;-72
2022/03/31 11:48:17;;;;;;;1.52;0.55;;;10.40;84.30;;;;;;4351039;32;20512;-72
2022/03/31 11:50:52;;;;;;;0.50;0.50;;;10.50;82.60;;;;;;4347874;32;20102;-72
2022/03/31 11:53:20;;;;;;;0.80;0.80;;;10.20;82.50;;;;;;4360788;32;20079;-72
2022/03/31 11:56:21;;;;;;;1.05;0.75;;;10.00;84.00;;;;;;4359909;32;20089;-72
2022/03/31 11:58:50;;;;;;;0.40;0.40;;;10.30;83.30;;;;;;4351200;32;20210;-72
2022/03/31 12:01:17;;;;;;;0.40;0.40;;;10.70;82.40;;;;;;4363742;32;20074;-72
2022/03/31 12:03:43;;;;;;;4.35;1.00;;;10.70;81.70;;;;;;4364045;32;20424;-71
2022/03/31 12:06:10;;;;;;;0.73;0.73;;;10.40;83.60;;;;;;4367538;32;20094;-71
2022/03/31 12:08:38;;;;;;;0.50;0.50;;;10.50;83.40;;;;;;4363631;32;20102;-71
2022/03/31 12:11:04;;;;;;;1.77;0.93;;;10.80;82.50;;;;;;4366348;32;20367;-72
2022/03/31 12:13:32;;;;;;;0.85;0.77;;;10.90;81.70;;;;;;4367973;32;20071;-72
2022/03/31 12:16:06;;;;;;;0.50;0.50;;;10.60;83.10;;;;;;4366483;32;20082;-71
2022/03/31 12:18:34;;;;;;;0.60;0.60;;;10.30;84.00;;;;;;4357495;32;20087;-70
2022/03/31 12:21:01;;;;;;;0.40;0.40;;;10.10;84.70;;;;;;4363420;32;20070;-71
2022/03/31 12:23:27;;;;;;;0.60;0.60;;;10.00;85.00;;;;;;4373873;32;20154;-70
2022/03/31 12:25:53;;;;;;;0.75;0.75;;;9.90;85.10;;;;;;4361278;32;20523;-71
2022/03/31 12:28:23;;;;;;;3.75;1.70;;;9.70;86.50;;;;;;4365508;32;20135;-72
2022/03/31 12:30:50;;;;;;;5.43;1.02;;;9.60;86.40;;;;;;4367121;32;20829;-70
2022/03/31 12:33:35;;;;;;;0.77;0.65;;;9.50;86.20;;;;;;4357561;32;20258;-71
2022/03/31 12:36:03;;;;;;;1.85;1.12;;;9.70;86.40;;;;;;4367738;32;20083;-71
2022/03/31 12:38:40;;;;;;;3.42;0.93;;;9.60;85.60;;;;;;4366491;32;20090;-70
2022/03/31 12:41:13;;;;;;;0.40;0.40;;;9.40;85.90;;;;;;4365244;32;20074;-70
2022/03/31 12:43:39;;;;;;;1.60;0.70;;;9.30;86.90;;;;;;4372317;32;21320;-71
2022/03/31 12:46:16;;;;;;;0.62;0.62;;;9.50;86.80;;;;;;4367276;32;20093;-70
2022/03/31 12:49:02;;;;;;;0.40;0.40;;;9.50;86.00;;;;;;4369242;32;20141;-71
2022/03/31 12:51:28;;;;;;;2.55;1.20;;;9.40;85.70;;;;;;4369419;32;20094;-71
2022/03/31 12:53:54;;;;;;;0.65;0.65;;;9.30;85.50;;;;;;4371682;32;20076;-71